Time;durP1;ratioP1;P1;durP2;ratioP2;P2;SDS_P1;SDS_P2;PMS_P1;PMS_P2;Temp;Humidity;BMP_temperature;BMP_pressure;BME280_temperature;BME280_humidity;BME280_pressure;Samples;Min_cycle;Max_cycle;Signal;HPM_P1;HPM_P2
2021/05/07 00:01:05;;;;;;;9.93;8.38;;;;;;;;;;5013957;28;20210;-61
2021/05/07 00:03:31;;;;;;;8.07;7.28;;;;;;;;;;5013718;28;20227;-61
2021/05/07 00:05:58;;;;;;;8.00;7.20;;;;;;;;;;5013599;28;20210;-61
2021/05/07 00:08:26;;;;;;;9.88;7.65;;;;;;;;;;5013931;28;20231;-61
2021/05/07 00:10:53;;;;;;;11.20;8.43;;;;;;;;;;5013907;28;20211;-59
2021/05/07 00:13:20;;;;;;;11.77;9.38;;;;;;;;;;5013786;28;20227;-62
2021/05/07 00:15:48;;;;;;;9.93;7.63;;;;;;;;;;5013978;28;20210;-61
2021/05/07 00:18:16;;;;;;;11.45;8.25;;;;;;;;;;5013885;28;20627;-61
2021/05/07 00:20:42;;;;;;;11.73;9.57;;;;;;;;;;5013840;28;20203;-61
2021/05/07 00:23:09;;;;;;;12.02;9.68;;;;;;;;;;5014456;28;20231;-61
2021/05/07 00:25:36;;;;;;;12.27;10.70;;;;;;;;;;5017831;28;20666;-61
2021/05/07 00:28:04;;;;;;;13.07;10.15;;;;;;;;;;5017204;28;20702;-61
2021/05/07 00:30:31;;;;;;;14.35;11.70;;;;;;;;;;5017252;28;20208;-61
2021/05/07 00:32:58;;;;;;;12.02;10.82;;;;;;;;;;5024914;28;20222;-61
2021/05/07 00:35:25;;;;;;;15.18;10.65;;;;;;;;;;5017600;28;20213;-61
2021/05/07 00:37:52;;;;;;;11.77;10.00;;;;;;;;;;5017226;28;20203;-61
2021/05/07 00:40:19;;;;;;;11.77;10.57;;;;;;;;;;5017329;28;20207;-61
2021/05/07 00:42:46;;;;;;;13.85;11.45;;;;;;;;;;5017284;28;20223;-61
2021/05/07 00:45:13;;;;;;;14.63;11.02;;;;;;;;;;5017311;28;20215;-61
2021/05/07 00:47:43;;;;;;;17.58;11.90;;;;;;;;;;5017501;28;20203;-60
2021/05/07 00:50:12;;;;;;;12.15;9.70;;;;;;;;;;5018974;28;20261;-60
2021/05/07 00:52:38;;;;;;;15.73;10.73;;;;;;;;;;5018444;28;20227;-61
2021/05/07 00:55:06;;;;;;;11.07;9.90;;;;;;;;;;5018875;28;20218;-60
2021/05/07 00:57:33;;;;;;;15.43;10.60;;;;;;;;;;5017864;28;20230;-61
2021/05/07 01:00:00;;;;;;;12.20;10.35;;;;;;;;;;5017094;28;20199;-60
2021/05/07 01:02:27;;;;;;;10.40;8.77;;;;;;;;;;5016938;28;20211;-61
2021/05/07 01:04:54;;;;;;;10.93;9.48;;;;;;;;;;5016726;28;20679;-61
2021/05/07 01:07:21;;;;;;;11.45;8.75;;;;;;;;;;5016612;28;20199;-61
2021/05/07 01:09:50;;;;;;;11.05;9.45;;;;;;;;;;5016768;28;20294;-61
2021/05/07 01:12:17;;;;;;;10.50;9.40;;;;;;;;;;5016828;28;20231;-62
2021/05/07 01:14:44;;;;;;;15.15;11.65;;;;;;;;;;5016758;28;20207;-61
2021/05/07 01:17:11;;;;;;;10.77;9.65;;;;;;;;;;5016477;28;20199;-61
2021/05/07 01:19:38;;;;;;;10.73;9.73;;;;;;;;;;5016591;28;20202;-61
2021/05/07 01:22:05;;;;;;;10.40;9.40;;;;;;;;;;5016786;28;20203;-60
2021/05/07 01:24:32;;;;;;;11.48;10.38;;;;;;;;;;5016157;28;20235;-61
2021/05/07 01:26:59;;;;;;;12.60;10.15;;;;;;;;;;5016659;28;20250;-61
2021/05/07 01:29:26;;;;;;;10.90;9.80;;;;;;;;;;5017144;28;20223;-61
2021/05/07 01:31:56;;;;;;;11.23;10.07;;;;;;;;;;5016674;28;20615;-61
2021/05/07 01:34:23;;;;;;;11.98;9.55;;;;;;;;;;5015624;28;20223;-60
2021/05/07 01:36:50;;;;;;;10.85;9.82;;;;;;;;;;5016070;28;20198;-61
2021/05/07 01:39:17;;;;;;;10.20;9.25;;;;;;;;;;5016449;28;20254;-61
2021/05/07 01:41:44;;;;;;;11.88;10.50;;;;;;;;;;5017234;28;20595;-61
2021/05/07 01:44:11;;;;;;;13.23;10.00;;;;;;;;;;5016771;28;20223;-61
2021/05/07 01:46:37;;;;;;;10.65;9.10;;;;;;;;;;5016276;28;20203;-61
2021/05/07 01:49:04;;;;;;;11.10;9.98;;;;;;;;;;5016101;28;20223;-61
2021/05/07 01:51:31;;;;;;;12.10;10.05;;;;;;;;;;5016315;28;20257;-61
2021/05/07 01:53:58;;;;;;;12.73;10.95;;;;;;;;;;5016364;28;20230;-61
2021/05/07 01:56:26;;;;;;;11.60;10.40;;;;;;;;;;5016072;28;20246;-61
2021/05/07 01:58:52;;;;;;;12.20;10.90;;;;;;;;;;5016115;28;20273;-61
2021/05/07 02:01:19;;;;;;;15.15;11.20;;;;;;;;;;5015978;28;20230;-61
2021/05/07 02:03:46;;;;;;;12.23;10.10;;;;;;;;;;5015978;28;20254;-61
2021/05/07 02:06:12;;;;;;;13.38;10.95;;;;;;;;;;5015886;28;20203;-61
2021/05/07 02:08:39;;;;;;;11.05;10.02;;;;;;;;;;5015687;28;20298;-60
2021/05/07 02:11:06;;;;;;;13.18;10.50;;;;;;;;;;5015619;28;20214;-61
2021/05/07 02:13:34;;;;;;;10.73;9.63;;;;;;;;;;5015690;28;20222;-60
2021/05/07 02:16:00;;;;;;;14.52;12.52;;;;;;;;;;5015494;28;20206;-61
2021/05/07 02:18:27;;;;;;;13.25;11.63;;;;;;;;;;5015610;28;20195;-60
2021/05/07 02:20:55;;;;;;;12.48;11.20;;;;;;;;;;5015600;28;20199;-61
2021/05/07 02:23:23;;;;;;;12.15;9.77;;;;;;;;;;5015242;28;20237;-61
2021/05/07 02:25:49;;;;;;;13.82;10.20;;;;;;;;;;5015620;28;20199;-60
2021/05/07 02:28:16;;;;;;;13.00;11.73;;;;;;;;;;5015146;28;20223;-60
2021/05/07 02:30:44;;;;;;;13.95;12.57;;;;;;;;;;5015819;28;20203;-60
2021/05/07 02:33:11;;;;;;;14.07;12.05;;;;;;;;;;5017177;28;20274;-61
2021/05/07 02:35:37;;;;;;;13.95;11.45;;;;;;;;;;5016294;28;20203;-62
2021/05/07 02:38:04;;;;;;;15.18;12.20;;;;;;;;;;5016332;28;20597;-61
2021/05/07 02:40:31;;;;;;;14.15;11.85;;;;;;;;;;5015447;28;20577;-61
2021/05/07 02:42:58;;;;;;;13.45;11.68;;;;;;;;;;5015006;28;20691;-61
2021/05/07 02:45:24;;;;;;;13.30;11.77;;;;;;;;;;5015142;28;20253;-61
2021/05/07 02:47:52;;;;;;;16.33;12.48;;;;;;;;;;5014433;28;20230;-61
2021/05/07 02:50:19;;;;;;;16.45;13.07;;;;;;;;;;5015047;28;20206;-60
2021/05/07 02:52:46;;;;;;;14.55;12.32;;;;;;;;;;5014965;28;20230;-61
2021/05/07 02:55:13;;;;;;;15.98;12.57;;;;;;;;;;5015148;28;20226;-61
2021/05/07 02:57:40;;;;;;;14.70;12.35;;;;;;;;;;5016737;28;20203;-61
2021/05/07 03:00:07;;;;;;;14.30;12.02;;;;;;;;;;5016478;28;20195;-61
2021/05/07 03:02:34;;;;;;;11.80;10.55;;;;;;;;;;5015771;28;20729;-61
2021/05/07 03:05:02;;;;;;;14.70;11.48;;;;;;;;;;5015890;28;20203;-61
2021/05/07 03:07:29;;;;;;;14.75;12.15;;;;;;;;;;5016763;28;20203;-61
2021/05/07 03:09:56;;;;;;;15.63;13.13;;;;;;;;;;5016421;28;20231;-60
2021/05/07 03:12:22;;;;;;;14.98;13.38;;;;;;;;;;5016160;28;20555;-60
2021/05/07 03:14:49;;;;;;;15.55;12.57;;;;;;;;;;5016289;28;20667;-60
2021/05/07 03:17:16;;;;;;;17.38;14.10;;;;;;;;;;5016132;28;20211;-60
2021/05/07 03:19:43;;;;;;;14.52;12.05;;;;;;;;;;5016447;28;20285;-60
2021/05/07 03:22:10;;;;;;;15.90;12.55;;;;;;;;;;5014892;28;20647;-61
2021/05/07 03:24:37;;;;;;;13.25;11.85;;;;;;;;;;5053256;23;20280;-58
2021/05/07 03:27:04;;;;;;;13.38;11.40;;;;;;;;;;5034140;28;20264;-58
2021/05/07 03:29:31;;;;;;;13.13;11.57;;;;;;;;;;5033865;28;20251;-58
2021/05/07 03:31:57;;;;;;;11.55;9.63;;;;;;;;;;5034050;28;20206;-58
2021/05/07 03:34:24;;;;;;;14.70;10.45;;;;;;;;;;5033952;28;20221;-58
2021/05/07 03:36:51;;;;;;;11.68;9.32;;;;;;;;;;5034467;28;20206;-57
2021/05/07 03:39:18;;;;;;;10.85;8.73;;;;;;;;;;5033595;28;20689;-58
2021/05/07 03:41:45;;;;;;;10.20;8.95;;;;;;;;;;5034066;28;20256;-57
2021/05/07 03:44:12;;;;;;;10.82;9.65;;;;;;;;;;5034249;28;20226;-57
2021/05/07 03:46:39;;;;;;;11.85;10.07;;;;;;;;;;5034206;28;20800;-57
2021/05/07 03:49:05;;;;;;;10.30;8.85;;;;;;;;;;5033876;28;20214;-58
2021/05/07 03:51:32;;;;;;;12.00;10.02;;;;;;;;;;5034070;28;20209;-57
2021/05/07 03:53:59;;;;;;;13.27;10.27;;;;;;;;;;5035183;28;20288;-57
2021/05/07 03:56:26;;;;;;;12.73;9.85;;;;;;;;;;5033622;28;20202;-56
2021/05/07 03:58:53;;;;;;;12.85;10.13;;;;;;;;;;5033525;28;20619;-56
2021/05/07 04:01:21;;;;;;;13.43;10.10;;;;;;;;;;5033504;28;20253;-57
2021/05/07 04:03:48;;;;;;;12.00;9.05;;;;;;;;;;5033928;28;20229;-57
2021/05/07 04:08:10;;;;;;;13.07;10.35;;;;;;;;;;5112055;27;20548;-57
2021/05/07 04:10:38;;;;;;;13.15;10.45;;;;;;;;;;5111510;28;20210;-58
2021/05/07 04:15:49;;;;;;;17.35;11.57;;;;;;;;;;5111237;28;20657;-57
2021/05/07 04:18:16;;;;;;;15.65;12.55;;;;;;;;;;5110952;28;20671;-57
2021/05/07 04:20:43;;;;;;;15.98;12.98;;;;;;;;;;5111820;28;20200;-57
2021/05/07 04:23:10;;;;;;;16.08;12.38;;;;;;;;;;5111041;28;20641;-57
2021/05/07 04:25:37;;;;;;;13.57;12.15;;;;;;;;;;5111170;28;20199;-58
2021/05/07 04:28:04;;;;;;;14.05;11.40;;;;;;;;;;5111229;28;20200;-57
2021/05/07 04:30:31;;;;;;;13.70;10.52;;;;;;;;;;5111272;28;20659;-58
2021/05/07 04:32:58;;;;;;;13.02;11.57;;;;;;;;;;5110789;28;20226;-56
2021/05/07 04:35:25;;;;;;;13.68;11.15;;;;;;;;;;5111107;28;20204;-57
2021/05/07 04:37:51;;;;;;;12.80;10.40;;;;;;;;;;5111402;28;20660;-56
2021/05/07 04:40:19;;;;;;;12.85;11.20;;;;;;;;;;5110441;28;20667;-56
2021/05/07 04:42:46;;;;;;;13.10;10.70;;;;;;;;;;5110865;28;20249;-57
2021/05/07 04:45:13;;;;;;;13.02;9.80;;;;;;;;;;5110859;28;20196;-58
2021/05/07 04:47:40;;;;;;;10.38;9.30;;;;;;;;;;5110701;28;20242;-58
2021/05/07 04:50:07;;;;;;;10.85;9.77;;;;;;;;;;5110359;28;20204;-57
2021/05/07 04:52:34;;;;;;;12.57;9.32;;;;;;;;;;5110747;28;20204;-57
2021/05/07 04:55:01;;;;;;;10.93;9.25;;;;;;;;;;5110329;28;20207;-58
2021/05/07 04:57:28;;;;;;;9.68;8.68;;;;;;;;;;5110621;28;20192;-56
2021/05/07 04:59:55;;;;;;;10.00;8.40;;;;;;;;;;5110409;28;20742;-57
2021/05/07 05:02:22;;;;;;;9.45;8.23;;;;;;;;;;5110477;28;20295;-57
2021/05/07 05:04:49;;;;;;;9.23;8.23;;;;;;;;;;5110261;28;20329;-57
2021/05/07 05:07:15;;;;;;;9.77;8.00;;;;;;;;;;5109931;28;20216;-56
2021/05/07 05:09:42;;;;;;;8.45;7.55;;;;;;;;;;5110200;28;20250;-57
2021/05/07 05:12:09;;;;;;;10.05;7.95;;;;;;;;;;5110061;28;20667;-56
2021/05/07 05:14:36;;;;;;;8.90;6.88;;;;;;;;;;5110349;28;20358;-57
2021/05/07 05:17:03;;;;;;;10.48;8.02;;;;;;;;;;5110804;28;20191;-56
2021/05/07 05:19:30;;;;;;;9.90;7.60;;;;;;;;;;5096220;28;20204;-57
2021/05/07 05:21:57;;;;;;;8.57;7.68;;;;;;;;;;5096326;28;20200;-57
2021/05/07 05:24:23;;;;;;;8.68;7.55;;;;;;;;;;5096337;28;20251;-57
2021/05/07 05:26:50;;;;;;;8.82;7.93;;;;;;;;;;5096353;28;20217;-57
2021/05/07 05:29:17;;;;;;;9.43;7.85;;;;;;;;;;5096421;28;20201;-56
2021/05/07 05:31:44;;;;;;;8.50;7.50;;;;;;;;;;5096457;28;20223;-58
2021/05/07 05:34:11;;;;;;;10.40;9.30;;;;;;;;;;5095758;28;20220;-57
2021/05/07 05:36:38;;;;;;;9.63;8.80;;;;;;;;;;5095858;28;20690;-58
2021/05/07 05:39:05;;;;;;;11.55;10.15;;;;;;;;;;5095977;28;20204;-57
2021/05/07 05:41:32;;;;;;;12.15;10.68;;;;;;;;;;5096030;28;20200;-55
2021/05/07 05:43:59;;;;;;;11.52;10.10;;;;;;;;;;5095760;28;20224;-57
2021/05/07 05:46:25;;;;;;;12.23;10.95;;;;;;;;;;5095293;28;20695;-57
2021/05/07 05:48:53;;;;;;;12.95;11.13;;;;;;;;;;5095748;28;20197;-56
2021/05/07 05:51:20;;;;;;;14.68;12.07;;;;;;;;;;5095759;28;20209;-56
2021/05/07 05:53:47;;;;;;;13.10;11.55;;;;;;;;;;5095368;28;20228;-57
2021/05/07 05:56:13;;;;;;;14.45;12.27;;;;;;;;;;5095261;28;20201;-57
2021/05/07 05:58:40;;;;;;;16.63;13.60;;;;;;;;;;5095679;28;20201;-57
2021/05/07 06:01:07;;;;;;;16.15;13.90;;;;;;;;;;5095474;28;20208;-56
2021/05/07 06:03:34;;;;;;;16.33;14.57;;;;;;;;;;5095453;28;20297;-56
2021/05/07 06:06:01;;;;;;;18.67;14.75;;;;;;;;;;5095450;28;20204;-55
2021/05/07 06:08:28;;;;;;;18.27;15.30;;;;;;;;;;5095201;28;20662;-56
2021/05/07 06:10:56;;;;;;;19.10;15.60;;;;;;;;;;5095525;28;20200;-56
2021/05/07 06:13:22;;;;;;;27.35;15.98;;;;;;;;;;5094858;28;20786;-56
2021/05/07 06:15:49;;;;;;;16.10;14.38;;;;;;;;;;5095226;28;20295;-57
2021/05/07 06:18:16;;;;;;;17.33;13.63;;;;;;;;;;5094687;28;20204;-57
2021/05/07 06:20:43;;;;;;;20.17;15.15;;;;;;;;;;5094762;28;20687;-57
2021/05/07 06:23:10;;;;;;;18.47;16.47;;;;;;;;;;5094877;28;20519;-55
2021/05/07 06:25:38;;;;;;;19.73;16.80;;;;;;;;;;5096074;28;20446;-55
2021/05/07 06:28:05;;;;;;;19.40;17.08;;;;;;;;;;5095903;28;20266;-54
2021/05/07 06:30:32;;;;;;;15.00;12.85;;;;;;;;;;5094755;28;20200;-55
2021/05/07 06:32:58;;;;;;;17.83;12.65;;;;;;;;;;5095659;28;20236;-55
2021/05/07 06:35:25;;;;;;;16.60;13.90;;;;;;;;;;5095885;28;20200;-55
2021/05/07 06:37:53;;;;;;;17.60;13.60;;;;;;;;;;5095813;28;20200;-55
2021/05/07 06:40:21;;;;;;;17.13;12.93;;;;;;;;;;5095385;28;20283;-55
2021/05/07 06:42:48;;;;;;;17.30;14.15;;;;;;;;;;5095092;28;20254;-56
2021/05/07 06:45:15;;;;;;;15.95;13.85;;;;;;;;;;5095628;28;20204;-55
2021/05/07 06:47:42;;;;;;;15.90;13.85;;;;;;;;;;5095956;28;20261;-56
2021/05/07 06:50:10;;;;;;;16.42;12.65;;;;;;;;;;5095748;28;20211;-55
2021/05/07 06:52:37;;;;;;;14.73;13.10;;;;;;;;;;5095466;28;20215;-55
2021/05/07 06:55:04;;;;;;;15.45;13.85;;;;;;;;;;5095507;28;20208;-56
2021/05/07 06:57:32;;;;;;;19.42;14.65;;;;;;;;;;5095128;28;20659;-55
2021/05/07 06:59:58;;;;;;;17.55;13.95;;;;;;;;;;5095154;28;20261;-56
2021/05/07 07:02:25;;;;;;;15.75;13.40;;;;;;;;;;5095542;28;20200;-56
2021/05/07 07:04:52;;;;;;;13.27;11.85;;;;;;;;;;5095346;28;20227;-55
2021/05/07 07:07:19;;;;;;;14.93;12.63;;;;;;;;;;5094662;28;20224;-56
2021/05/07 07:09:45;;;;;;;15.70;11.32;;;;;;;;;;5094778;28;20605;-55
2021/05/07 07:12:13;;;;;;;14.55;11.10;;;;;;;;;;5094890;28;20204;-54
2021/05/07 07:14:41;;;;;;;11.63;9.60;;;;;;;;;;5094704;28;20223;-56
2021/05/07 07:17:08;;;;;;;12.63;11.27;;;;;;;;;;5095043;28;20212;-57
2021/05/07 07:19:34;;;;;;;16.55;10.73;;;;;;;;;;5094976;28;20211;-55
2021/05/07 07:22:01;;;;;;;14.57;11.18;;;;;;;;;;5095155;28;20201;-54
2021/05/07 07:24:28;;;;;;;11.48;9.48;;;;;;;;;;5094745;28;20221;-54
2021/05/07 07:26:55;;;;;;;12.60;10.95;;;;;;;;;;5094271;28;20714;-56
2021/05/07 07:29:22;;;;;;;13.90;12.50;;;;;;;;;;5094947;28;20211;-55
2021/05/07 07:31:50;;;;;;;10.73;9.60;;;;;;;;;;5094670;28;20201;-55
2021/05/07 07:34:17;;;;;;;10.88;9.77;;;;;;;;;;5094536;28;20224;-55
2021/05/07 07:36:45;;;;;;;9.35;8.43;;;;;;;;;;5094876;28;20204;-55
2021/05/07 07:39:12;;;;;;;9.40;8.40;;;;;;;;;;5094474;28;20197;-57
2021/05/07 07:41:39;;;;;;;8.88;7.95;;;;;;;;;;5094019;28;20581;-56
2021/05/07 07:44:06;;;;;;;9.25;7.18;;;;;;;;;;5094165;28;20224;-55
2021/05/07 07:46:33;;;;;;;8.57;6.78;;;;;;;;;;5093848;28;20220;-53
2021/05/07 07:49:00;;;;;;;8.15;6.32;;;;;;;;;;5093372;28;20197;-56
2021/05/07 07:51:29;;;;;;;11.02;8.55;;;;;;;;;;5093495;28;20207;-54
2021/05/07 07:53:56;;;;;;;7.97;7.28;;;;;;;;;;5093919;28;20410;-55
2021/05/07 07:56:23;;;;;;;7.13;6.43;;;;;;;;;;5093698;28;20193;-55
2021/05/07 07:58:50;;;;;;;7.38;6.57;;;;;;;;;;5093734;28;20211;-55
2021/05/07 08:01:16;;;;;;;6.10;5.60;;;;;;;;;;5094024;28;20212;-55
2021/05/07 08:03:43;;;;;;;6.97;6.25;;;;;;;;;;5093240;28;20216;-56
2021/05/07 08:06:11;;;;;;;7.05;5.60;;;;;;;;;;5092638;28;20732;-56
2021/05/07 08:08:38;;;;;;;5.30;4.82;;;;;;;;;;5093486;28;20269;-53
2021/05/07 08:11:04;;;;;;;6.43;5.70;;;;;;;;;;5094211;28;20575;-57
2021/05/07 08:13:31;;;;;;;6.15;5.55;;;;;;;;;;5094184;28;20686;-54
2021/05/07 08:15:58;;;;;;;7.75;6.15;;;;;;;;;;5093197;28;20229;-55
2021/05/07 08:18:25;;;;;;;6.97;5.65;;;;;;;;;;5093544;28;20204;-56
2021/05/07 08:20:51;;;;;;;7.95;5.57;;;;;;;;;;5092890;28;20263;-56
2021/05/07 08:23:19;;;;;;;6.30;5.80;;;;;;;;;;5092828;28;20229;-57
2021/05/07 08:25:46;;;;;;;5.95;5.45;;;;;;;;;;5093437;28;20208;-54
2021/05/07 08:28:13;;;;;;;6.15;5.55;;;;;;;;;;5093304;28;20247;-55
2021/05/07 08:30:39;;;;;;;6.30;5.78;;;;;;;;;;5093773;28;20262;-57
2021/05/07 08:33:06;;;;;;;7.35;5.63;;;;;;;;;;5093507;28;20221;-55
2021/05/07 08:35:33;;;;;;;7.80;5.85;;;;;;;;;;5093156;28;20723;-56
2021/05/07 08:38:00;;;;;;;6.50;5.45;;;;;;;;;;5093188;28;20200;-55
2021/05/07 08:40:28;;;;;;;8.00;5.50;;;;;;;;;;5092745;28;20676;-57
2021/05/07 08:42:55;;;;;;;9.85;5.93;;;;;;;;;;5092501;28;20208;-57
2021/05/07 08:45:22;;;;;;;6.57;5.95;;;;;;;;;;5092926;28;20200;-56
2021/05/07 08:47:52;;;;;;;6.78;5.60;;;;;;;;;;5092626;28;20216;-57
2021/05/07 08:50:19;;;;;;;5.38;4.85;;;;;;;;;;5093063;28;20185;-56
2021/05/07 08:52:45;;;;;;;5.78;5.20;;;;;;;;;;5092761;28;20218;-56
2021/05/07 08:55:12;;;;;;;5.82;4.35;;;;;;;;;;5097081;28;20249;-55
2021/05/07 08:57:40;;;;;;;6.22;4.70;;;;;;;;;;5096180;28;20198;-54
2021/05/07 09:00:09;;;;;;;4.38;3.97;;;;;;;;;;5096580;28;20257;-56
2021/05/07 09:02:36;;;;;;;6.97;4.30;;;;;;;;;;5096855;28;20287;-57
2021/05/07 09:05:03;;;;;;;4.75;4.35;;;;;;;;;;5096058;28;20728;-60
2021/05/07 09:07:29;;;;;;;5.30;4.57;;;;;;;;;;5095781;28;20721;-58
2021/05/07 09:09:58;;;;;;;4.70;4.30;;;;;;;;;;5096105;28;20212;-59
2021/05/07 09:12:29;;;;;;;3.22;2.92;;;;;;;;;;5096164;28;20200;-59
2021/05/07 09:14:57;;;;;;;4.30;4.00;;;;;;;;;;5095854;28;20903;-59
2021/05/07 09:17:24;;;;;;;5.07;4.07;;;;;;;;;;5096126;28;20220;-60
2021/05/07 09:20:03;;;;;;;4.28;3.60;;;;;;;;;;5096454;28;20255;-60
2021/05/07 09:22:29;;;;;;;3.72;3.42;;;;;;;;;;5096316;28;20663;-61
2021/05/07 09:25:10;;;;;;;3.90;3.60;;;;;;;;;;5082889;22;20701;-56
2021/05/07 09:27:37;;;;;;;4.07;3.08;;;;;;;;;;5035485;28;20682;-56
2021/05/07 09:30:06;;;;;;;4.25;3.80;;;;;;;;;;5035685;28;20203;-56
2021/05/07 09:32:33;;;;;;;3.63;3.33;;;;;;;;;;5035249;28;20266;-56
2021/05/07 09:35:10;;;;;;;4.70;3.10;;;;;;;;;;5035564;28;20303;-56
2021/05/07 09:37:37;;;;;;;3.70;3.40;;;;;;;;;;5034973;28;20279;-56
2021/05/07 09:40:17;;;;;;;4.93;3.20;;;;;;;;;;5035117;28;20233;-56
2021/05/07 09:42:44;;;;;;;4.00;3.70;;;;;;;;;;5035341;28;20575;-56
2021/05/07 09:45:22;;;;;;;3.00;2.63;;;;;;;;;;5035640;28;20760;-57
2021/05/07 09:47:49;;;;;;;2.97;2.65;;;;;;;;;;5034801;28;20772;-57
2021/05/07 09:50:19;;;;;;;2.92;2.72;;;;;;;;;;5035003;28;20666;-56
2021/05/07 09:52:48;;;;;;;3.42;3.13;;;;;;;;;;5034711;28;20776;-56
2021/05/07 09:55:15;;;;;;;3.13;2.83;;;;;;;;;;5034895;28;20226;-55
2021/05/07 09:57:41;;;;;;;3.83;3.22;;;;;;;;;;5034952;28;20215;-56
2021/05/07 10:00:09;;;;;;;2.80;2.60;;;;;;;;;;5035105;28;20268;-55
2021/05/07 10:02:36;;;;;;;2.80;2.60;;;;;;;;;;5034936;28;20269;-57
2021/05/07 10:05:03;;;;;;;2.83;2.63;;;;;;;;;;5034560;28;20226;-56
2021/05/07 10:07:30;;;;;;;2.90;2.70;;;;;;;;;;5034746;28;20218;-57
2021/05/07 10:10:07;;;;;;;3.22;2.92;;;;;;;;;;5034602;28;20625;-58
2021/05/07 10:12:35;;;;;;;4.32;2.75;;;;;;;;;;5034736;28;20237;-55
2021/05/07 10:15:02;;;;;;;3.00;2.53;;;;;;;;;;5034232;28;20226;-54
2021/05/07 10:17:29;;;;;;;2.83;2.60;;;;;;;;;;5034481;28;20519;-54
2021/05/07 10:19:57;;;;;;;2.60;2.40;;;;;;;;;;5034208;28;20206;-55
2021/05/07 10:22:27;;;;;;;2.43;2.17;;;;;;;;;;5034064;28;20206;-54
2021/05/07 10:24:54;;;;;;;3.50;2.95;;;;;;;;;;5033872;28;20492;-55
2021/05/07 10:27:22;;;;;;;2.72;2.53;;;;;;;;;;5034039;28;20222;-54
2021/05/07 10:29:52;;;;;;;3.08;2.75;;;;;;;;;;5034223;28;20215;-55
2021/05/07 10:32:30;;;;;;;3.17;2.97;;;;;;;;;;5034678;28;20201;-54
2021/05/07 10:34:59;;;;;;;5.00;3.20;;;;;;;;;;5033704;28;20714;-54
2021/05/07 10:37:36;;;;;;;4.10;3.00;;;;;;;;;;5033967;28;20205;-54
2021/05/07 10:40:03;;;;;;;3.85;3.55;;;;;;;;;;5033810;28;20281;-54
2021/05/07 10:42:30;;;;;;;2.80;2.33;;;;;;;;;;5033873;28;20202;-54
2021/05/07 10:44:57;;;;;;;3.50;3.20;;;;;;;;;;5033976;28;20222;-54
2021/05/07 10:47:32;;;;;;;3.22;2.92;;;;;;;;;;5033770;28;20222;-53
2021/05/07 10:49:59;;;;;;;5.25;3.13;;;;;;;;;;5034136;28;20224;-53
2021/05/07 10:52:38;;;;;;;3.97;3.40;;;;;;;;;;5034044;28;20202;-55
2021/05/07 10:55:06;;;;;;;3.80;2.60;;;;;;;;;;5034430;28;20226;-54
2021/05/07 10:57:35;;;;;;;3.70;3.40;;;;;;;;;;5034120;28;20203;-54
2021/05/07 11:00:05;;;;;;;3.90;2.63;;;;;;;;;;5034120;28;20619;-55
2021/05/07 11:02:42;;;;;;;2.70;2.50;;;;;;;;;;5033851;28;20681;-54
2021/05/07 11:05:10;;;;;;;4.85;2.92;;;;;;;;;;5034102;28;20236;-55
2021/05/07 11:07:37;;;;;;;3.23;2.93;;;;;;;;;;5033828;28;20644;-54
2021/05/07 11:10:04;;;;;;;6.23;3.50;;;;;;;;;;5033717;28;20452;-55
2021/05/07 11:12:31;;;;;;;3.30;3.00;;;;;;;;;;5033998;28;20444;-54
2021/05/07 11:14:58;;;;;;;5.67;2.80;;;;;;;;;;5033783;28;20515;-55
2021/05/07 11:17:25;;;;;;;3.60;3.30;;;;;;;;;;5033494;28;20499;-55
2021/05/07 11:19:52;;;;;;;3.47;3.17;;;;;;;;;;5034019;28;20449;-54
2021/05/07 11:22:24;;;;;;;3.80;3.50;;;;;;;;;;5033416;28;20456;-54
2021/05/07 11:24:51;;;;;;;3.57;2.90;;;;;;;;;;5033335;28;20534;-53
2021/05/07 11:27:20;;;;;;;4.03;3.63;;;;;;;;;;5032959;28;20487;-54
2021/05/07 11:29:47;;;;;;;3.53;2.93;;;;;;;;;;5033734;28;20472;-58
2021/05/07 11:32:15;;;;;;;3.00;2.80;;;;;;;;;;5033538;28;20453;-56
2021/05/07 11:34:43;;;;;;;3.80;2.87;;;;;;;;;;5033255;28;20464;-56
2021/05/07 11:37:10;;;;;;;3.20;3.00;;;;;;;;;;5033769;28;20452;-55
2021/05/07 11:39:37;;;;;;;3.50;3.20;;;;;;;;;;5033166;28;20965;-55
2021/05/07 11:42:04;;;;;;;3.47;3.17;;;;;;;;;;5033527;28;20444;-53
2021/05/07 11:44:31;;;;;;;3.37;3.17;;;;;;;;;;5033012;28;20469;-55
2021/05/07 11:47:05;;;;;;;3.63;3.17;;;;;;;;;;5033314;28;20528;-56
2021/05/07 11:49:32;;;;;;;4.70;3.70;;;;;;;;;;5033588;28;20788;-59
2021/05/07 11:51:59;;;;;;;3.00;2.63;;;;;;;;;;5033039;28;20457;-55
2021/05/07 11:54:26;;;;;;;2.90;2.70;;;;;;;;;;5033439;28;20469;-56
2021/05/07 11:56:56;;;;;;;3.70;3.00;;;;;;;;;;5033459;28;20456;-57
2021/05/07 11:59:23;;;;;;;4.10;3.27;;;;;;;;;;5033277;28;20819;-57
2021/05/07 12:01:50;;;;;;;3.00;2.70;;;;;;;;;;5032567;28;20449;-57
2021/05/07 12:04:17;;;;;;;3.13;2.93;;;;;;;;;;5032835;28;20469;-54
2021/05/07 12:06:44;;;;;;;2.57;2.37;;;;;;;;;;5033588;28;20509;-57
2021/05/07 12:09:12;;;;;;;3.40;2.70;;;;;;;;;;5032831;28;20486;-53
2021/05/07 12:11:39;;;;;;;3.13;2.83;;;;;;;;;;5032451;28;20482;-59
2021/05/07 12:14:10;;;;;;;2.80;2.60;;;;;;;;;;5033282;28;20502;-58
2021/05/07 12:16:37;;;;;;;2.77;2.57;;;;;;;;;;5032252;28;20454;-56
2021/05/07 12:19:04;;;;;;;2.73;2.43;;;;;;;;;;5032764;28;20503;-58
2021/05/07 12:21:39;;;;;;;2.70;2.50;;;;;;;;;;5032382;28;20455;-56
2021/05/07 12:24:07;;;;;;;3.13;2.87;;;;;;;;;;5032100;28;20520;-59
2021/05/07 12:26:45;;;;;;;2.73;2.53;;;;;;;;;;5031975;28;20943;-59
2021/05/07 12:29:12;;;;;;;3.13;2.90;;;;;;;;;;5034910;28;20431;-58
2021/05/07 12:31:39;;;;;;;2.90;2.37;;;;;;;;;;5036115;28;20461;-57
2021/05/07 12:34:13;;;;;;;2.37;2.17;;;;;;;;;;5036361;28;20521;-57
2021/05/07 12:36:40;;;;;;;2.30;2.20;;;;;;;;;;5036127;28;20442;-56
2021/05/07 12:39:10;;;;;;;3.30;2.60;;;;;;;;;;5036004;28;20453;-58
2021/05/07 12:41:36;;;;;;;2.83;2.60;;;;;;;;;;5036144;28;20512;-56
2021/05/07 12:44:03;;;;;;;2.27;2.07;;;;;;;;;;5036175;28;20489;-57
2021/05/07 12:46:31;;;;;;;2.60;2.40;;;;;;;;;;5035696;28;20817;-59
2021/05/07 12:49:00;;;;;;;2.80;2.60;;;;;;;;;;5036331;28;20447;-59
2021/05/07 12:51:27;;;;;;;2.23;2.03;;;;;;;;;;5036054;28;20450;-57
2021/05/07 12:53:54;;;;;;;2.90;2.50;;;;;;;;;;5035994;28;20838;-58
2021/05/07 12:56:23;;;;;;;1.97;1.83;;;;;;;;;;5036077;28;20851;-57
2021/05/07 12:58:50;;;;;;;2.23;1.97;;;;;;;;;;5035850;28;20446;-57
2021/05/07 13:01:16;;;;;;;2.83;2.63;;;;;;;;;;5035661;28;20446;-56
2021/05/07 13:03:44;;;;;;;4.13;2.20;;;;;;;;;;5036048;28;20485;-58
2021/05/07 13:06:11;;;;;;;2.53;2.33;;;;;;;;;;5035678;28;20441;-56
2021/05/07 13:08:38;;;;;;;2.97;2.00;;;;;;;;;;5035493;28;20482;-57
2021/05/07 13:11:05;;;;;;;2.07;1.87;;;;;;;;;;5035689;28;20445;-57
2021/05/07 13:13:32;;;;;;;4.33;2.07;;;;;;;;;;5035438;28;20465;-57
2021/05/07 13:15:59;;;;;;;2.67;2.00;;;;;;;;;;5035663;28;20890;-57
2021/05/07 13:18:26;;;;;;;1.90;1.80;;;;;;;;;;5035889;28;20442;-56
2021/05/07 13:20:53;;;;;;;4.63;1.87;;;;;;;;;;5035774;28;20456;-57
2021/05/07 13:23:21;;;;;;;1.83;1.73;;;;;;;;;;5035234;28;20459;-55
2021/05/07 13:25:47;;;;;;;2.20;2.00;;;;;;;;;;5035585;28;20440;-56
2021/05/07 13:28:14;;;;;;;2.30;2.10;;;;;;;;;;5035760;28;20482;-58
2021/05/07 13:30:41;;;;;;;2.47;2.27;;;;;;;;;;5035441;28;20457;-58
2021/05/07 13:33:08;;;;;;;5.23;2.10;;;;;;;;;;5035445;28;20441;-60
2021/05/07 13:35:34;;;;;;;2.47;2.00;;;;;;;;;;5035506;28;20453;-57
2021/05/07 13:38:03;;;;;;;1.77;1.67;;;;;;;;;;5035450;28;20495;-56
2021/05/07 13:40:30;;;;;;;3.90;2.10;;;;;;;;;;5035554;28;20449;-58
2021/05/07 13:42:57;;;;;;;2.50;2.30;;;;;;;;;;5035173;28;20449;-56
2021/05/07 13:45:24;;;;;;;3.13;2.53;;;;;;;;;;5035251;28;20461;-58
2021/05/07 13:47:50;;;;;;;3.23;2.43;;;;;;;;;;5035099;28;20477;-58
2021/05/07 13:50:18;;;;;;;2.73;2.53;;;;;;;;;;5034916;28;20453;-58
2021/05/07 13:52:45;;;;;;;4.80;2.80;;;;;;;;;;5035333;28;20480;-56
2021/05/07 13:55:13;;;;;;;3.28;2.55;;;;;;;;;;5034970;28;20235;-56
2021/05/07 13:57:40;;;;;;;2.47;2.28;;;;;;;;;;5034920;28;20198;-56
2021/05/07 14:00:08;;;;;;;3.17;2.88;;;;;;;;;;5034612;28;20594;-57
2021/05/07 14:02:35;;;;;;;3.65;2.83;;;;;;;;;;5034524;28;20666;-54
2021/05/07 14:05:01;;;;;;;3.10;2.80;;;;;;;;;;5034781;28;20263;-55
2021/05/07 14:07:28;;;;;;;5.72;2.53;;;;;;;;;;5034691;28;20227;-57
2021/05/07 14:09:55;;;;;;;2.55;2.35;;;;;;;;;;5034772;28;20256;-56
2021/05/07 14:12:23;;;;;;;2.20;2.00;;;;;;;;;;5034820;28;20202;-57
2021/05/07 14:14:49;;;;;;;2.72;2.10;;;;;;;;;;5034841;28;20273;-56
2021/05/07 14:17:16;;;;;;;2.33;2.13;;;;;;;;;;5034575;28;20195;-56
2021/05/07 14:19:43;;;;;;;2.20;1.75;;;;;;;;;;5034157;28;20202;-56
2021/05/07 14:22:10;;;;;;;3.08;2.72;;;;;;;;;;5034470;28;20257;-56
2021/05/07 14:24:37;;;;;;;2.35;2.15;;;;;;;;;;5034228;28;20243;-55
2021/05/07 14:27:05;;;;;;;2.35;2.03;;;;;;;;;;5033997;28;20728;-56
2021/05/07 14:29:32;;;;;;;2.38;2.00;;;;;;;;;;5034276;28;20670;-56
2021/05/07 14:31:59;;;;;;;2.40;1.98;;;;;;;;;;5034400;28;20206;-54
2021/05/07 14:34:26;;;;;;;4.40;2.30;;;;;;;;;;5034311;28;20296;-55
2021/05/07 14:36:53;;;;;;;2.30;2.10;;;;;;;;;;5034399;28;20209;-55
2021/05/07 14:39:20;;;;;;;2.15;1.90;;;;;;;;;;5034029;28;20689;-55